sensor_id;sensor_type;location;lat;lon;timestamp;pressure;altitude;pressure_sealevel;temperature;humidity
73332;BME280;61560;33.718;73.040;2023-03-16T00:02:07;94612.16;;;19.21;71.60
73332;BME280;61560;33.718;73.040;2023-03-16T00:04:33;94625.44;;;19.17;72.08
73332;BME280;61560;33.718;73.040;2023-03-16T00:07:07;94635.63;;;19.20;72.81
73332;BME280;61560;33.718;73.040;2023-03-16T00:09:35;94639.19;;;19.21;73.25
73332;BME280;61560;33.718;73.040;2023-03-16T00:12:14;94647.84;;;19.14;72.80
73332;BME280;61560;33.718;73.040;2023-03-16T00:14:48;94646.78;;;19.11;73.01
73332;BME280;61560;33.718;73.040;2023-03-16T00:17:17;94635.66;;;19.11;72.14
73332;BME280;61560;33.718;73.040;2023-03-16T00:19:52;94629.00;;;19.18;68.52
73332;BME280;61560;33.718;73.040;2023-03-16T00:22:24;94621.63;;;19.15;68.46
73332;BME280;61560;33.718;73.040;2023-03-16T00:24:51;94610.97;;;19.13;66.13
73332;BME280;61560;33.718;73.040;2023-03-16T00:27:18;94599.16;;;19.27;63.12
73332;BME280;61560;33.718;73.040;2023-03-16T00:29:46;94601.41;;;19.38;61.56
73332;BME280;61560;33.718;73.040;2023-03-16T00:32:18;94592.25;;;19.46;59.78
73332;BME280;61560;33.718;73.040;2023-03-16T00:34:45;94588.34;;;19.53;59.62
73332;BME280;61560;33.718;73.040;2023-03-16T00:37:14;94590.47;;;19.58;58.63
73332;BME280;61560;33.718;73.040;2023-03-16T00:39:43;94608.19;;;19.60;57.77
73332;BME280;61560;33.718;73.040;2023-03-16T00:42:13;94603.09;;;19.59;56.69
73332;BME280;61560;33.718;73.040;2023-03-16T00:44:40;94614.28;;;19.50;56.69
73332;BME280;61560;33.718;73.040;2023-03-16T00:47:09;94613.41;;;19.44;56.60
73332;BME280;61560;33.718;73.040;2023-03-16T00:49:42;94601.41;;;19.38;56.22
73332;BME280;61560;33.718;73.040;2023-03-16T00:52:10;94591.56;;;19.37;56.41
73332;BME280;61560;33.718;73.040;2023-03-16T00:54:45;94581.69;;;19.36;55.95
73332;BME280;61560;33.718;73.040;2023-03-16T00:57:15;94587.25;;;19.36;56.35
73332;BME280;61560;33.718;73.040;2023-03-16T00:59:47;94584.31;;;19.39;56.90
73332;BME280;61560;33.718;73.040;2023-03-16T01:02:15;94573.00;;;19.43;56.39
73332;BME280;61560;33.718;73.040;2023-03-16T01:04:44;94571.75;;;19.44;56.83
73332;BME280;61560;33.718;73.040;2023-03-16T01:07:13;94570.69;;;19.41;57.19
73332;BME280;61560;33.718;73.040;2023-03-16T01:09:43;94587.19;;;19.45;57.41
73332;BME280;61560;33.718;73.040;2023-03-16T01:12:13;94587.94;;;19.45;57.55
73332;BME280;61560;33.718;73.040;2023-03-16T01:14:44;94613.13;;;19.42;57.97
73332;BME280;61560;33.718;73.040;2023-03-16T01:17:15;94629.97;;;19.38;58.85
73332;BME280;61560;33.718;73.040;2023-03-16T01:19:42;94648.34;;;19.36;60.18
73332;BME280;61560;33.718;73.040;2023-03-16T01:22:10;94675.19;;;19.30;63.05
73332;BME280;61560;33.718;73.040;2023-03-16T01:24:38;94703.16;;;19.26;63.84
73332;BME280;61560;33.718;73.040;2023-03-16T01:27:07;94717.97;;;19.23;65.21
73332;BME280;61560;33.718;73.040;2023-03-16T01:29:34;94723.53;;;19.23;66.63
73332;BME280;61560;33.718;73.040;2023-03-16T01:32:03;94721.41;;;19.18;67.98
73332;BME280;61560;33.718;73.040;2023-03-16T01:34:30;94732.69;;;19.15;69.05
73332;BME280;61560;33.718;73.040;2023-03-16T01:37:21;94744.13;;;19.08;69.49
73332;BME280;61560;33.718;73.040;2023-03-16T01:39:56;94756.31;;;19.01;70.21
73332;BME280;61560;33.718;73.040;2023-03-16T01:42:24;94757.28;;;18.89;71.07
73332;BME280;61560;33.718;73.040;2023-03-16T01:47:23;94758.75;;;18.66;72.24
73332;BME280;61560;33.718;73.040;2023-03-16T01:49:53;94757.53;;;18.67;72.19
73332;BME280;61560;33.718;73.040;2023-03-16T01:52:27;94760.91;;;18.71;72.11
73332;BME280;61560;33.718;73.040;2023-03-16T01:55:05;94764.44;;;18.72;72.32
73332;BME280;61560;33.718;73.040;2023-03-16T01:57:43;94770.31;;;18.65;72.33
73332;BME280;61560;33.718;73.040;2023-03-16T02:00:15;94767.53;;;18.65;71.57
73332;BME280;61560;33.718;73.040;2023-03-16T02:03:15;94768.78;;;18.55;70.64
73332;BME280;61560;33.718;73.040;2023-03-16T02:06:01;94777.56;;;18.53;70.65
73332;BME280;61560;33.718;73.040;2023-03-16T02:08:32;94786.69;;;18.45;68.49
73332;BME280;61560;33.718;73.040;2023-03-16T02:10:59;94799.63;;;18.48;70.16
73332;BME280;61560;33.718;73.040;2023-03-16T02:13:39;94820.28;;;18.47;70.34
73332;BME280;61560;33.718;73.040;2023-03-16T02:16:06;94830.91;;;18.48;71.08
73332;BME280;61560;33.718;73.040;2023-03-16T02:18:34;94851.84;;;18.40;72.65
73332;BME280;61560;33.718;73.040;2023-03-16T02:21:05;94865.84;;;18.28;73.52
73332;BME280;61560;33.718;73.040;2023-03-16T02:23:36;94865.03;;;18.09;74.64
73332;BME280;61560;33.718;73.040;2023-03-16T02:26:14;94876.75;;;18.04;75.01
73332;BME280;61560;33.718;73.040;2023-03-16T02:31:23;94886.00;;;18.10;75.40
73332;BME280;61560;33.718;73.040;2023-03-16T02:33:52;94885.06;;;18.04;75.54
73332;BME280;61560;33.718;73.040;2023-03-16T02:36:20;94877.81;;;18.07;75.04
73332;BME280;61560;33.718;73.040;2023-03-16T02:38:47;94852.38;;;17.90;74.58
73332;BME280;61560;33.718;73.040;2023-03-16T02:41:39;94866.84;;;17.94;75.34
73332;BME280;61560;33.718;73.040;2023-03-16T02:46:47;94866.38;;;17.86;74.41
73332;BME280;61560;33.718;73.040;2023-03-16T02:49:22;94862.41;;;17.87;72.68
73332;BME280;61560;33.718;73.040;2023-03-16T02:51:52;94863.63;;;17.86;73.20
73332;BME280;61560;33.718;73.040;2023-03-16T02:54:19;94870.09;;;17.92;72.99
73332;BME280;61560;33.718;73.040;2023-03-16T02:56:46;94869.00;;;17.90;72.91
73332;BME280;61560;33.718;73.040;2023-03-16T02:59:13;94865.31;;;17.93;72.24
73332;BME280;61560;33.718;73.040;2023-03-16T03:01:41;94860.38;;;17.88;72.55
73332;BME280;61560;33.718;73.040;2023-03-16T03:04:09;94865.13;;;17.78;72.87
73332;BME280;61560;33.718;73.040;2023-03-16T03:06:37;94868.81;;;17.75;72.19
73332;BME280;61560;33.718;73.040;2023-03-16T03:09:05;94871.56;;;17.75;71.94
73332;BME280;61560;33.718;73.040;2023-03-16T03:11:37;94865.09;;;17.69;73.28
73332;BME280;61560;33.718;73.040;2023-03-16T03:14:04;94871.25;;;17.64;74.66
73332;BME280;61560;33.718;73.040;2023-03-16T03:16:31;94872.03;;;17.65;74.21
73332;BME280;61560;33.718;73.040;2023-03-16T03:18:58;94891.84;;;17.63;74.64
73332;BME280;61560;33.718;73.040;2023-03-16T03:21:27;94893.41;;;17.64;74.24
73332;BME280;61560;33.718;73.040;2023-03-16T03:23:54;94886.19;;;17.67;73.47
73332;BME280;61560;33.718;73.040;2023-03-16T03:26:21;94882.47;;;17.61;72.22
73332;BME280;61560;33.718;73.040;2023-03-16T03:28:50;94874.28;;;17.57;71.34
73332;BME280;61560;33.718;73.040;2023-03-16T03:31:20;94883.22;;;17.52;72.35
73332;BME280;61560;33.718;73.040;2023-03-16T03:33:47;94878.09;;;17.51;71.30
73332;BME280;61560;33.718;73.040;2023-03-16T03:36:14;94889.53;;;17.53;71.61
73332;BME280;61560;33.718;73.040;2023-03-16T03:38:43;94885.75;;;17.47;70.66
73332;BME280;61560;33.718;73.040;2023-03-16T03:41:11;94889.84;;;17.55;70.27
73332;BME280;61560;33.718;73.040;2023-03-16T03:43:38;94904.28;;;17.50;70.77
73332;BME280;61560;33.718;73.040;2023-03-16T03:46:30;94909.94;;;17.46;72.10
73332;BME280;61560;33.718;73.040;2023-03-16T03:48:58;94924.44;;;17.50;73.17
73332;BME280;61560;33.718;73.040;2023-03-16T03:51:31;94922.38;;;17.42;71.09
73332;BME280;61560;33.718;73.040;2023-03-16T03:54:12;94934.84;;;17.46;69.55
73332;BME280;61560;33.718;73.040;2023-03-16T03:56:56;94951.25;;;17.41;69.53
73332;BME280;61560;33.718;73.040;2023-03-16T03:59:24;94963.28;;;17.47;70.70
73332;BME280;61560;33.718;73.040;2023-03-16T04:02:10;94983.34;;;17.51;71.71
73332;BME280;61560;33.718;73.040;2023-03-16T04:04:48;94994.31;;;17.54;71.41
73332;BME280;61560;33.718;73.040;2023-03-16T04:07:16;95016.78;;;17.56;71.07
73332;BME280;61560;33.718;73.040;2023-03-16T04:09:43;95030.44;;;17.51;71.12
73332;BME280;61560;33.718;73.040;2023-03-16T04:12:24;95035.22;;;17.50;71.34
73332;BME280;61560;33.718;73.040;2023-03-16T04:14:51;95046.28;;;17.50;71.56
73332;BME280;61560;33.718;73.040;2023-03-16T04:17:19;95058.47;;;17.53;71.44
73332;BME280;61560;33.718;73.040;2023-03-16T04:19:48;95073.84;;;17.54;71.53
73332;BME280;61560;33.718;73.040;2023-03-16T04:22:16;95079.72;;;17.56;71.97
73332;BME280;61560;33.718;73.040;2023-03-16T04:24:44;95082.16;;;17.54;71.96
73332;BME280;61560;33.718;73.040;2023-03-16T04:27:12;95090.66;;;17.59;72.44
73332;BME280;61560;33.718;73.040;2023-03-16T04:29:40;95096.97;;;17.60;71.93
73332;BME280;61560;33.718;73.040;2023-03-16T04:32:07;95089.38;;;17.51;71.64
73332;BME280;61560;33.718;73.040;2023-03-16T04:34:34;95084.72;;;17.48;71.05
73332;BME280;61560;33.718;73.040;2023-03-16T04:37:04;95087.25;;;17.43;71.36
73332;BME280;61560;33.718;73.040;2023-03-16T04:39:37;95075.53;;;17.39;72.15
73332;BME280;61560;33.718;73.040;2023-03-16T04:42:08;95079.22;;;17.36;72.72
73332;BME280;61560;33.718;73.040;2023-03-16T04:44:35;95081.34;;;17.32;71.55
73332;BME280;61560;33.718;73.040;2023-03-16T04:47:11;95083.34;;;17.31;71.93
73332;BME280;61560;33.718;73.040;2023-03-16T04:49:40;95088.78;;;17.22;72.90
73332;BME280;61560;33.718;73.040;2023-03-16T04:52:09;95093.44;;;17.25;71.87
73332;BME280;61560;33.718;73.040;2023-03-16T04:54:36;95107.09;;;17.19;73.75
73332;BME280;61560;33.718;73.040;2023-03-16T04:57:03;95098.47;;;17.17;74.51
73332;BME280;61560;33.718;73.040;2023-03-16T04:59:36;95100.13;;;17.15;74.57
73332;BME280;61560;33.718;73.040;2023-03-16T05:02:26;95110.09;;;17.12;73.80
73332;BME280;61560;33.718;73.040;2023-03-16T05:04:54;95082.69;;;17.05;73.64
73332;BME280;61560;33.718;73.040;2023-03-16T05:07:21;95073.94;;;16.94;72.60
73332;BME280;61560;33.718;73.040;2023-03-16T05:09:52;95062.06;;;16.72;73.76
73332;BME280;61560;33.718;73.040;2023-03-16T05:12:20;95055.22;;;16.39;74.97
73332;BME280;61560;33.718;73.040;2023-03-16T05:14:50;95064.84;;;16.34;76.40
73332;BME280;61560;33.718;73.040;2023-03-16T05:17:35;95072.69;;;16.36;76.48
73332;BME280;61560;33.718;73.040;2023-03-16T05:20:01;95074.25;;;16.37;76.06
73332;BME280;61560;33.718;73.040;2023-03-16T05:22:33;95083.66;;;16.39;76.16
73332;BME280;61560;33.718;73.040;2023-03-16T05:25:14;95095.69;;;16.46;76.32
73332;BME280;61560;33.718;73.040;2023-03-16T05:27:47;95099.16;;;16.50;76.79
73332;BME280;61560;33.718;73.040;2023-03-16T05:30:19;95095.41;;;16.56;76.45
73332;BME280;61560;33.718;73.040;2023-03-16T05:32:50;95100.69;;;16.63;76.87
73332;BME280;61560;33.718;73.040;2023-03-16T05:35:17;95091.38;;;16.70;75.70
73332;BME280;61560;33.718;73.040;2023-03-16T05:37:47;95079.00;;;16.74;75.40
73332;BME280;61560;33.718;73.040;2023-03-16T05:40:17;95080.19;;;16.73;75.13
73332;BME280;61560;33.718;73.040;2023-03-16T05:42:56;95084.41;;;16.78;75.27
73332;BME280;61560;33.718;73.040;2023-03-16T05:45:23;95083.63;;;16.77;74.65
73332;BME280;61560;33.718;73.040;2023-03-16T05:48:06;95098.44;;;16.83;73.87
73332;BME280;61560;33.718;73.040;2023-03-16T05:50:40;95107.50;;;16.84;74.74
73332;BME280;61560;33.718;73.040;2023-03-16T05:53:08;95113.50;;;16.82;74.01
73332;BME280;61560;33.718;73.040;2023-03-16T05:55:36;95120.13;;;16.85;74.63
73332;BME280;61560;33.718;73.040;2023-03-16T05:58:06;95125.34;;;16.83;74.95
73332;BME280;61560;33.718;73.040;2023-03-16T06:00:34;95120.13;;;16.85;75.15
73332;BME280;61560;33.718;73.040;2023-03-16T06:03:15;95105.72;;;16.90;74.37
73332;BME280;61560;33.718;73.040;2023-03-16T06:05:46;95105.84;;;16.86;74.90
73332;BME280;61560;33.718;73.040;2023-03-16T06:08:14;95105.06;;;16.86;74.86
73332;BME280;61560;33.718;73.040;2023-03-16T06:11:05;95082.28;;;16.82;74.53
73332;BME280;61560;33.718;73.040;2023-03-16T06:13:38;95078.06;;;16.90;74.72
73332;BME280;61560;33.718;73.040;2023-03-16T06:16:06;95073.63;;;16.92;73.83
73332;BME280;61560;33.718;73.040;2023-03-16T06:18:34;95076.06;;;16.90;74.48
73332;BME280;61560;33.718;73.040;2023-03-16T06:21:01;95068.97;;;16.89;74.62
73332;BME280;61560;33.718;73.040;2023-03-16T06:23:30;95075.75;;;16.88;74.04
73332;BME280;61560;33.718;73.040;2023-03-16T06:25:57;95077.59;;;16.91;74.78
73332;BME280;61560;33.718;73.040;2023-03-16T06:28:28;95078.38;;;16.92;73.93
73332;BME280;61560;33.718;73.040;2023-03-16T06:30:56;95080.13;;;16.98;73.73
73332;BME280;61560;33.718;73.040;2023-03-16T06:33:27;95081.47;;;16.94;73.42
73332;BME280;61560;33.718;73.040;2023-03-16T06:35:55;95081.16;;;16.92;72.96
73332;BME280;61560;33.718;73.040;2023-03-16T06:38:42;95078.84;;;16.90;72.87
73332;BME280;61560;33.718;73.040;2023-03-16T06:41:22;95086.22;;;16.93;73.19
73332;BME280;61560;33.718;73.040;2023-03-16T06:43:49;95085.47;;;16.93;73.04
73332;BME280;61560;33.718;73.040;2023-03-16T06:46:16;95073.50;;;16.96;72.38
73332;BME280;61560;33.718;73.040;2023-03-16T06:48:43;95058.66;;;17.02;72.10
73332;BME280;61560;33.718;73.040;2023-03-16T06:51:11;95043.47;;;17.07;71.82
73332;BME280;61560;33.718;73.040;2023-03-16T06:54:02;95021.78;;;17.05;71.46
73332;BME280;61560;33.718;73.040;2023-03-16T06:56:32;95019.22;;;17.11;70.79
73332;BME280;61560;33.718;73.040;2023-03-16T06:58:59;95012.34;;;17.15;70.20
73332;BME280;61560;33.718;73.040;2023-03-16T07:01:26;95014.03;;;17.22;69.18
73332;BME280;61560;33.718;73.040;2023-03-16T07:03:53;95021.22;;;17.32;68.18
73332;BME280;61560;33.718;73.040;2023-03-16T07:06:24;95016.19;;;17.40;67.80
73332;BME280;61560;33.718;73.040;2023-03-16T07:08:51;95020.38;;;17.44;67.79
73332;BME280;61560;33.718;73.040;2023-03-16T07:11:19;95008.84;;;17.46;67.71
73332;BME280;61560;33.718;73.040;2023-03-16T07:13:48;95003.75;;;17.44;67.54
73332;BME280;61560;33.718;73.040;2023-03-16T07:16:17;94995.66;;;17.50;66.96
73332;BME280;61560;33.718;73.040;2023-03-16T07:18:44;94990.97;;;17.47;67.07
73332;BME280;61560;33.718;73.040;2023-03-16T07:21:13;94993.13;;;17.43;66.71
73332;BME280;61560;33.718;73.040;2023-03-16T07:23:40;94987.47;;;17.46;65.95
73332;BME280;61560;33.718;73.040;2023-03-16T07:26:08;94977.13;;;17.47;66.87
73332;BME280;61560;33.718;73.040;2023-03-16T07:28:46;94975.94;;;17.48;68.23
73332;BME280;61560;33.718;73.040;2023-03-16T07:31:14;94968.59;;;17.54;68.41
73332;BME280;61560;33.718;73.040;2023-03-16T07:33:41;94964.31;;;17.53;69.38
73332;BME280;61560;33.718;73.040;2023-03-16T07:36:13;94973.69;;;17.55;68.37
73332;BME280;61560;33.718;73.040;2023-03-16T07:38:45;94974.78;;;17.58;68.20
73332;BME280;61560;33.718;73.040;2023-03-16T07:41:15;94978.34;;;17.58;68.00
73332;BME280;61560;33.718;73.040;2023-03-16T07:43:44;94978.19;;;17.62;68.54
73332;BME280;61560;33.718;73.040;2023-03-16T07:46:14;94978.34;;;17.67;69.27
73332;BME280;61560;33.718;73.040;2023-03-16T07:48:42;94985.13;;;17.66;68.86
73332;BME280;61560;33.718;73.040;2023-03-16T07:51:11;94981.59;;;17.66;68.90
73332;BME280;61560;33.718;73.040;2023-03-16T07:53:40;94987.75;;;17.70;70.06
73332;BME280;61560;33.718;73.040;2023-03-16T07:56:15;94995.50;;;17.75;69.93
73332;BME280;61560;33.718;73.040;2023-03-16T07:58:46;95001.16;;;17.71;70.74
73332;BME280;61560;33.718;73.040;2023-03-16T08:01:12;95009.47;;;17.71;70.64
73332;BME280;61560;33.718;73.040;2023-03-16T08:03:39;95019.66;;;17.74;72.46
73332;BME280;61560;33.718;73.040;2023-03-16T08:06:06;95024.88;;;17.72;72.57
73332;BME280;61560;33.718;73.040;2023-03-16T08:08:35;95045.94;;;17.70;73.57
73332;BME280;61560;33.718;73.040;2023-03-16T08:11:02;95045.94;;;17.70;73.98
73332;BME280;61560;33.718;73.040;2023-03-16T08:13:40;95052.72;;;17.69;73.81
73332;BME280;61560;33.718;73.040;2023-03-16T08:16:09;95055.59;;;17.65;74.09
73332;BME280;61560;33.718;73.040;2023-03-16T08:18:38;95048.34;;;17.59;74.23
73332;BME280;61560;33.718;73.040;2023-03-16T08:21:06;95045.59;;;17.59;73.53
73332;BME280;61560;33.718;73.040;2023-03-16T08:23:33;95040.69;;;17.63;73.24
73332;BME280;61560;33.718;73.040;2023-03-16T08:26:01;95038.09;;;17.68;72.95
73332;BME280;61560;33.718;73.040;2023-03-16T08:28:28;95041.75;;;17.65;72.52
73332;BME280;61560;33.718;73.040;2023-03-16T08:30:59;95049.13;;;17.47;73.47
73332;BME280;61560;33.718;73.040;2023-03-16T08:33:37;95057.97;;;17.33;73.90
73332;BME280;61560;33.718;73.040;2023-03-16T08:36:07;95057.31;;;17.29;75.00
73332;BME280;61560;33.718;73.040;2023-03-16T08:38:35;95063.81;;;17.35;75.03
73332;BME280;61560;33.718;73.040;2023-03-16T08:41:06;95073.22;;;17.37;75.32
73332;BME280;61560;33.718;73.040;2023-03-16T08:43:34;95061.13;;;17.44;75.03
73332;BME280;61560;33.718;73.040;2023-03-16T08:46:00;95062.66;;;17.45;76.15
73332;BME280;61560;33.718;73.040;2023-03-16T08:48:39;95058.41;;;17.31;76.37
73332;BME280;61560;33.718;73.040;2023-03-16T08:51:08;95045.59;;;17.25;75.44
73332;BME280;61560;33.718;73.040;2023-03-16T08:53:35;95041.88;;;17.18;75.38
73332;BME280;61560;33.718;73.040;2023-03-16T08:56:04;95026.81;;;17.19;75.73
73332;BME280;61560;33.718;73.040;2023-03-16T08:58:32;95007.16;;;17.27;75.35
73332;BME280;61560;33.718;73.040;2023-03-16T09:01:00;94997.97;;;17.30;75.80
73332;BME280;61560;33.718;73.040;2023-03-16T09:03:28;94974.47;;;17.34;75.85
73332;BME280;61560;33.718;73.040;2023-03-16T09:06:06;94948.63;;;17.37;75.23
73332;BME280;61560;33.718;73.040;2023-03-16T09:08:33;94932.41;;;17.27;75.43
73332;BME280;61560;33.718;73.040;2023-03-16T09:11:07;94924.25;;;17.23;76.55
73332;BME280;61560;33.718;73.040;2023-03-16T09:13:38;94916.72;;;17.24;76.44
73332;BME280;61560;33.718;73.040;2023-03-16T09:16:09;94909.97;;;17.25;77.64
73332;BME280;61560;33.718;73.040;2023-03-16T09:18:35;94907.97;;;17.25;78.08
73332;BME280;61560;33.718;73.040;2023-03-16T09:21:04;94902.94;;;17.33;78.14
73332;BME280;61560;33.718;73.040;2023-03-16T09:23:32;94902.94;;;17.33;78.43
73332;BME280;61560;33.718;73.040;2023-03-16T09:26:04;94897.28;;;17.36;78.31
73332;BME280;61560;33.718;73.040;2023-03-16T09:28:32;94885.59;;;17.41;77.57
73332;BME280;61560;33.718;73.040;2023-03-16T09:31:01;94881.94;;;17.44;76.65
73332;BME280;61560;33.718;73.040;2023-03-16T09:33:28;94877.59;;;17.43;76.75
73332;BME280;61560;33.718;73.040;2023-03-16T09:35:58;94876.06;;;17.42;77.37
73332;BME280;61560;33.718;73.040;2023-03-16T09:38:26;94881.16;;;17.44;76.81
73332;BME280;61560;33.718;73.040;2023-03-16T09:41:05;94890.34;;;17.41;74.55
73332;BME280;61560;33.718;73.040;2023-03-16T09:46:26;94885.44;;;17.45;75.12
73332;BME280;61560;33.718;73.040;2023-03-16T09:48:55;94874.25;;;17.48;74.65
73332;BME280;61560;33.718;73.040;2023-03-16T09:54:45;94880.88;;;17.51;74.31
73332;BME280;61560;33.718;73.040;2023-03-16T09:57:31;94875.34;;;17.51;73.98
73332;BME280;61560;33.718;73.040;2023-03-16T10:05:30;94868.94;;;17.63;74.36
73332;BME280;61560;33.718;73.040;2023-03-16T10:08:06;94874.19;;;17.70;75.03
73332;BME280;61560;33.718;73.040;2023-03-16T10:16:38;94855.41;;;17.74;74.03
73332;BME280;61560;33.718;73.040;2023-03-16T10:19:22;94852.53;;;17.77;74.63
73332;BME280;61560;33.718;73.040;2023-03-16T10:21:55;94845.91;;;17.84;74.48
73332;BME280;61560;33.718;73.040;2023-03-16T10:27:00;94843.31;;;17.89;73.88
73332;BME280;61560;33.718;73.040;2023-03-16T10:29:31;94851.94;;;17.91;74.30
73332;BME280;61560;33.718;73.040;2023-03-16T10:32:12;94850.69;;;17.92;74.17
73332;BME280;61560;33.718;73.040;2023-03-16T10:34:46;94843.94;;;17.93;74.46
73332;BME280;61560;33.718;73.040;2023-03-16T10:37:14;94855.66;;;17.97;74.57
73332;BME280;61560;33.718;73.040;2023-03-16T10:39:40;94847.63;;;17.99;73.83
73332;BME280;61560;33.718;73.040;2023-03-16T10:42:17;94852.44;;;18.08;74.11
73332;BME280;61560;33.718;73.040;2023-03-16T10:44:44;94848.72;;;18.11;73.13
73332;BME280;61560;33.718;73.040;2023-03-16T10:47:21;94846.41;;;18.10;72.53
73332;BME280;61560;33.718;73.040;2023-03-16T10:49:49;94851.34;;;18.15;72.40
73332;BME280;61560;33.718;73.040;2023-03-16T10:52:42;94846.72;;;18.21;71.60
73332;BME280;61560;33.718;73.040;2023-03-16T10:57:47;94850.72;;;18.29;68.09
73332;BME280;61560;33.718;73.040;2023-03-16T11:00:15;94855.38;;;18.32;68.30
73332;BME280;61560;33.718;73.040;2023-03-16T11:02:47;94849.22;;;18.37;68.22
73332;BME280;61560;33.718;73.040;2023-03-16T11:05:32;94843.97;;;18.39;67.92
73332;BME280;61560;33.718;73.040;2023-03-16T11:08:33;94835.06;;;18.44;66.77
73332;BME280;61560;33.718;73.040;2023-03-16T11:10:58;94830.91;;;18.48;66.28
73332;BME280;61560;33.718;73.040;2023-03-16T11:13:35;94841.34;;;18.53;65.84
73332;BME280;61560;33.718;73.040;2023-03-16T11:16:30;94837.81;;;18.62;64.60
73332;BME280;61560;33.718;73.040;2023-03-16T11:19:26;94826.88;;;18.67;64.70
73332;BME280;61560;33.718;73.040;2023-03-16T11:27:52;94831.78;;;18.72;65.14
73332;BME280;61560;33.718;73.040;2023-03-16T11:31:02;94839.66;;;18.74;65.20
73332;BME280;61560;33.718;73.040;2023-03-16T11:33:31;94830.41;;;18.77;65.31
73332;BME280;61560;33.718;73.040;2023-03-16T11:36:14;94829.16;;;18.78;65.44
73332;BME280;61560;33.718;73.040;2023-03-16T11:49:43;94839.66;;;18.74;65.42
73332;BME280;61560;33.718;73.040;2023-03-16T11:52:16;94842.72;;;18.76;63.79
73332;BME280;61560;33.718;73.040;2023-03-16T11:55:07;94830.09;;;18.75;64.25
73332;BME280;61560;33.718;73.040;2023-03-16T12:02:53;94830.88;;;18.66;64.02
73332;BME280;61560;33.718;73.040;2023-03-16T12:08:24;94820.41;;;18.61;65.09
73332;BME280;61560;33.718;73.040;2023-03-16T12:16:07;94802.22;;;18.60;65.60
73332;BME280;61560;33.718;73.040;2023-03-16T12:21:18;94804.84;;;18.55;66.20
73332;BME280;61560;33.718;73.040;2023-03-16T12:23:51;94803.00;;;18.52;65.83
73332;BME280;61560;33.718;73.040;2023-03-16T12:26:20;94818.88;;;18.51;64.93
73332;BME280;61560;33.718;73.040;2023-03-16T12:28:49;94804.69;;;18.49;64.43
73332;BME280;61560;33.718;73.040;2023-03-16T12:31:34;94810.72;;;18.48;64.47
73332;BME280;61560;33.718;73.040;2023-03-16T12:52:08;94808.53;;;18.16;64.33
73332;BME280;61560;33.718;73.040;2023-03-16T12:54:35;94811.47;;;18.12;64.21
73332;BME280;61560;33.718;73.040;2023-03-16T12:57:06;94808.41;;;18.10;63.87
73332;BME280;61560;33.718;73.040;2023-03-16T12:59:45;94810.06;;;18.08;63.35
73332;BME280;61560;33.718;73.040;2023-03-16T13:02:33;94806.53;;;18.07;63.62
73332;BME280;61560;33.718;73.040;2023-03-16T13:05:13;94801.16;;;18.04;64.24
73332;BME280;61560;33.718;73.040;2023-03-16T13:07:49;94800.97;;;17.98;65.41
73332;BME280;61560;33.718;73.040;2023-03-16T13:10:18;94797.44;;;17.88;66.09
73332;BME280;61560;33.718;73.040;2023-03-16T13:12:46;94801.44;;;17.87;66.51
73332;BME280;61560;33.718;73.040;2023-03-16T13:18:01;94800.66;;;17.87;68.37
73332;BME280;61560;33.718;73.040;2023-03-16T13:20:33;94795.28;;;17.83;69.64
73332;BME280;61560;33.718;73.040;2023-03-16T13:23:26;94803.72;;;17.80;70.66
73332;BME280;61560;33.718;73.040;2023-03-16T13:26:13;94805.09;;;17.75;70.63
73332;BME280;61560;33.718;73.040;2023-03-16T13:28:50;94807.22;;;17.62;71.38
73332;BME280;61560;33.718;73.040;2023-03-16T13:31:27;94801.03;;;17.49;71.83
73332;BME280;61560;33.718;73.040;2023-03-16T13:33:59;94799.03;;;17.50;72.09
73332;BME280;61560;33.718;73.040;2023-03-16T13:36:28;94807.78;;;17.48;72.31
73332;BME280;61560;33.718;73.040;2023-03-16T13:39:00;94815.59;;;17.41;72.10
73332;BME280;61560;33.718;73.040;2023-03-16T13:41:31;94816.19;;;17.36;71.70
73332;BME280;61560;33.718;73.040;2023-03-16T13:43:57;94819.75;;;17.36;71.33
73332;BME280;61560;33.718;73.040;2023-03-16T13:46:28;94820.81;;;17.39;71.83
73332;BME280;61560;33.718;73.040;2023-03-16T13:48:58;94824.81;;;17.38;71.82
73332;BME280;61560;33.718;73.040;2023-03-16T13:51:28;94837.09;;;17.37;71.92
73332;BME280;61560;33.718;73.040;2023-03-16T13:54:15;94837.41;;;17.30;72.06
73332;BME280;61560;33.718;73.040;2023-03-16T13:56:44;94846.34;;;17.34;72.04
73332;BME280;61560;33.718;73.040;2023-03-16T13:59:10;94837.09;;;17.37;72.00
73332;BME280;61560;33.718;73.040;2023-03-16T14:01:37;94839.13;;;17.36;71.79
73332;BME280;61560;33.718;73.040;2023-03-16T14:04:11;94838.34;;;17.36;71.74
73332;BME280;61560;33.718;73.040;2023-03-16T14:06:57;94832.34;;;17.37;72.03
73332;BME280;61560;33.718;73.040;2023-03-16T14:09:28;94829.13;;;17.39;72.15
73332;BME280;61560;33.718;73.040;2023-03-16T14:11:57;94831.25;;;17.35;72.35
73332;BME280;61560;33.718;73.040;2023-03-16T14:14:35;94832.50;;;17.34;72.07
73332;BME280;61560;33.718;73.040;2023-03-16T14:17:11;94817.88;;;17.33;71.47
73332;BME280;61560;33.718;73.040;2023-03-16T14:19:44;94815.88;;;17.34;70.77
73332;BME280;61560;33.718;73.040;2023-03-16T14:22:19;94807.59;;;17.34;70.64
73332;BME280;61560;33.718;73.040;2023-03-16T14:24:53;94801.72;;;17.32;69.94
73332;BME280;61560;33.718;73.040;2023-03-16T14:27:30;94790.50;;;17.26;69.78
73332;BME280;61560;33.718;73.040;2023-03-16T14:30:20;94780.78;;;17.22;70.02
73332;BME280;61560;33.718;73.040;2023-03-16T14:33:02;94779.38;;;17.17;69.86
73332;BME280;61560;33.718;73.040;2023-03-16T14:35:41;94777.97;;;17.12;69.99
73332;BME280;61560;33.718;73.040;2023-03-16T14:40:57;94780.25;;;17.05;70.49
73332;BME280;61560;33.718;73.040;2023-03-16T14:43:31;94791.00;;;17.03;70.47